Terminal Aerodrome Forecast
Issued by NWS Lake Charles, LA

Home | Current Version | Previous Version | Text Only | Print | Product List | Glossary On
Versions: 1 2 3 4 5 6 7 8 9 10 11 12 13 14 15 16 17 18 19 20
000
FTUS44 KLCH 020614 RRA
TAFLFT
TAF
KLFT 020614Z 0206/0306 00000KT P6SM SCT250
      TEMPO 0208/0212 2SM TSRA OVC008CB
     FM021200 20004KT P6SM -SHRA VCTS BKN025 OVC035CB
     FM021700 36012KT 4SM SHRA BKN012 OVC025 PROB30 0217/0223
      VRB15G25KT 2SM TSRA OVC008CB=

USA.gov is the U.S. government's official web portal to all federal, state and local government web resources and services.